Time;durP1;ratioP1;P1;durP2;ratioP2;P2;SDS_P1;SDS_P2;PMS_P1;PMS_P2;Temp;Humidity;BMP_temperature;BMP_pressure;BME280_temperature;BME280_humidity;BME280_pressure;Samples;Min_cycle;Max_cycle;Signal;HPM_P1;HPM_P2
2022/11/26 00:02:16;;;;;;;13.02;7.40;;;6.60;92.00;;;;;;5044569;28;19932;-60
2022/11/26 00:04:43;;;;;;;9.95;6.60;;;6.60;92.00;;;;;;5048714;28;20045;-59
2022/11/26 00:07:15;;;;;;;10.77;6.68;;;6.60;92.00;;;;;;5046268;28;20045;-60
2022/11/26 00:09:48;;;;;;;11.82;7.70;;;6.60;92.10;;;;;;5046250;28;20098;-61
2022/11/26 00:12:17;;;;;;;11.73;7.70;;;6.50;91.80;;;;;;5047843;28;20052;-60
2022/11/26 00:14:51;;;;;;;12.85;7.10;;;6.60;91.90;;;;;;5046666;28;20049;-60
2022/11/26 00:17:26;;;;;;;11.23;7.07;;;6.60;91.80;;;;;;5048027;28;20045;-60
2022/11/26 00:19:53;;;;;;;10.57;6.93;;;6.60;91.80;;;;;;5047974;28;20041;-60
2022/11/26 00:22:25;;;;;;;10.63;6.50;;;6.60;91.80;;;;;;5048985;28;20033;-59
2022/11/26 00:24:53;;;;;;;10.18;7.05;;;6.60;91.80;;;;;;5045855;28;20124;-60
2022/11/26 00:27:20;;;;;;;10.77;7.15;;;6.60;91.80;;;;;;5048356;28;20052;-63
2022/11/26 00:29:47;;;;;;;11.65;6.35;;;6.60;91.90;;;;;;5049575;28;20099;-62
2022/11/26 00:32:16;;;;;;;10.82;6.47;;;6.60;91.90;;;;;;5049046;28;20051;-62
2022/11/26 00:34:45;;;;;;;12.30;6.72;;;6.60;92.00;;;;;;5050299;28;20067;-63
2022/11/26 00:37:19;;;;;;;10.00;6.68;;;6.60;92.00;;;;;;5053338;28;20398;-65
2022/11/26 00:39:46;;;;;;;10.25;6.20;;;6.60;92.00;;;;;;5053239;28;20466;-65
2022/11/26 00:42:14;;;;;;;11.90;7.03;;;6.60;92.00;;;;;;5051425;28;20132;-67
2022/11/26 00:44:41;;;;;;;10.38;7.38;;;6.60;91.90;;;;;;5052998;28;20051;-67
2022/11/26 00:47:09;;;;;;;12.48;7.07;;;6.60;91.90;;;;;;5052975;28;20135;-66
2022/11/26 00:49:36;;;;;;;14.20;8.02;;;6.60;91.90;;;;;;5052725;28;20411;-67
2022/11/26 00:52:06;;;;;;;12.20;6.88;;;6.50;92.00;;;;;;5053569;28;20140;-58
2022/11/26 00:54:33;;;;;;;11.98;7.25;;;6.50;92.00;;;;;;5052447;28;20450;-59
2022/11/26 00:57:00;;;;;;;12.55;7.00;;;6.60;92.00;;;;;;5053824;28;20045;-59
2022/11/26 00:59:27;;;;;;;12.10;7.38;;;6.50;92.00;;;;;;5051085;28;20041;-58
2022/11/26 01:01:54;;;;;;;11.90;7.57;;;6.50;92.00;;;;;;5052802;28;20507;-59
2022/11/26 01:04:21;;;;;;;11.73;7.63;;;6.50;92.00;;;;;;5053749;28;20076;-61
2022/11/26 01:06:48;;;;;;;12.45;7.45;;;6.60;92.00;;;;;;5051260;28;20056;-67
2022/11/26 01:09:19;;;;;;;11.40;7.78;;;6.50;92.00;;;;;;5051804;28;20487;-66
2022/11/26 01:11:46;;;;;;;12.15;7.35;;;6.50;91.90;;;;;;5052852;28;20053;-58
2022/11/26 01:14:16;;;;;;;11.70;7.07;;;6.60;92.00;;;;;;5051105;28;20041;-57
2022/11/26 01:16:44;;;;;;;12.93;7.50;;;6.60;91.90;;;;;;5050782;28;20037;-61
2022/11/26 01:19:13;;;;;;;10.88;7.18;;;6.60;91.90;;;;;;5051729;28;20487;-62
2022/11/26 01:21:42;;;;;;;;;;;6.60;91.90;;;;;;5052023;28;20140;-64
2022/11/26 01:24:09;;;;;;;10.30;6.50;;;6.60;91.90;;;;;;5050552;28;19931;-65
2022/11/26 01:26:40;;;;;;;11.60;6.53;;;6.60;91.90;;;;;;5049506;28;20462;-64
2022/11/26 01:29:10;;;;;;;10.82;6.93;;;6.60;91.90;;;;;;5048953;28;20055;-65
2022/11/26 01:31:37;;;;;;;9.90;6.40;;;6.60;92.00;;;;;;5048425;28;20075;-59
2022/11/26 01:34:04;;;;;;;10.75;6.72;;;6.60;91.90;;;;;;5051144;28;20045;-59
2022/11/26 01:36:41;;;;;;;10.43;6.43;;;6.60;92.00;;;;;;5045602;28;20502;-69
2022/11/26 01:39:14;;;;;;;14.50;7.22;;;6.50;91.90;;;;;;5049276;28;20037;-68
2022/11/26 01:41:47;;;;;;;12.43;7.00;;;6.50;91.90;;;;;;5049679;28;20403;-60
2022/11/26 01:44:19;;;;;;;11.07;6.88;;;6.50;91.90;;;;;;5046294;28;20051;-59
2022/11/26 01:46:48;;;;;;;10.65;6.57;;;6.50;91.90;;;;;;5051120;28;20132;-60
2022/11/26 01:49:21;;;;;;;10.73;6.75;;;6.50;91.80;;;;;;5049571;28;20053;-60
2022/11/26 01:51:54;;;;;;;11.80;6.95;;;6.50;91.80;;;;;;5048586;28;20056;-60
2022/11/26 01:54:25;;;;;;;9.85;6.30;;;6.50;91.80;;;;;;5049866;28;20059;-60
2022/11/26 01:56:56;;;;;;;9.18;6.43;;;6.60;91.70;;;;;;5050496;28;20080;-61
2022/11/26 01:59:31;;;;;;;13.48;6.05;;;6.60;91.60;;;;;;5049857;28;20053;-61
2022/11/26 02:01:59;;;;;;;13.55;6.65;;;6.60;91.60;;;;;;5049309;28;20053;-68
2022/11/26 02:04:28;;;;;;;9.50;6.15;;;6.60;91.50;;;;;;5050109;28;20056;-68
2022/11/26 02:06:56;;;;;;;10.35;6.25;;;6.50;91.60;;;;;;5051561;28;20175;-60
2022/11/26 02:09:26;;;;;;;10.63;5.60;;;6.50;91.60;;;;;;5051025;28;20051;-60
2022/11/26 02:11:54;;;;;;;9.13;4.90;;;6.50;91.60;;;;;;5050196;28;20515;-59
2022/11/26 02:14:24;;;;;;;10.50;5.03;;;6.50;91.50;;;;;;5050207;28;20504;-59
2022/11/26 02:17:02;;;;;;;10.05;5.55;;;6.50;91.50;;;;;;5051009;28;20041;-66
2022/11/26 02:19:59;;;;;;;10.80;5.10;;;6.50;91.60;;;;;;5051205;28;20560;-67
2022/11/26 02:22:52;;;;;;;8.38;5.03;;;6.60;91.70;;;;;;5051968;28;20045;-67
2022/11/26 02:25:24;;;;;;;8.43;4.57;;;6.60;91.70;;;;;;5042619;28;20051;-66
2022/11/26 02:28:24;;;;;;;9.93;5.45;;;6.60;91.70;;;;;;5048720;28;20092;-68
2022/11/26 02:30:58;;;;;;;10.10;4.38;;;6.60;91.80;;;;;;5046080;28;20183;-60
2022/11/26 02:33:31;;;;;;;9.35;4.45;;;6.60;91.90;;;;;;5050261;28;20135;-61
2022/11/26 02:36:01;;;;;;;8.75;4.45;;;6.60;92.00;;;;;;5050026;28;20069;-61
2022/11/26 02:38:31;;;;;;;10.05;4.57;;;6.60;91.90;;;;;;5050376;28;20137;-61
2022/11/26 02:40:59;;;;;;;8.60;4.82;;;6.60;91.90;;;;;;5050579;28;20072;-69
2022/11/26 02:43:27;;;;;;;8.63;4.68;;;6.60;91.90;;;;;;5050992;28;20055;-68
2022/11/26 02:45:59;;;;;;;10.68;4.78;;;6.70;91.90;;;;;;5050074;28;20056;-65
2022/11/26 02:48:30;;;;;;;8.27;4.43;;;6.60;92.00;;;;;;5050458;28;20119;-66
2022/11/26 02:51:01;;;;;;;10.55;4.80;;;6.70;92.00;;;;;;5050557;28;20083;-65
2022/11/26 02:53:32;;;;;;;10.00;4.40;;;6.60;92.00;;;;;;5051431;28;20041;-65
2022/11/26 02:56:05;;;;;;;10.05;4.82;;;6.60;92.00;;;;;;5045627;28;20041;-59
2022/11/26 02:58:33;;;;;;;8.02;4.80;;;6.60;91.90;;;;;;5050169;28;20044;-58
2022/11/26 03:01:06;;;;;;;7.50;4.18;;;6.60;92.00;;;;;;5049068;28;20052;-67
2022/11/26 03:03:37;;;;;;;6.78;4.20;;;6.60;92.00;;;;;;5049131;28;20063;-66
2022/11/26 03:06:09;;;;;;;8.82;4.55;;;6.70;92.00;;;;;;5047356;28;20053;-65
2022/11/26 03:08:37;;;;;;;10.32;4.57;;;6.70;92.00;;;;;;5048040;28;20499;-66
2022/11/26 03:11:05;;;;;;;8.73;3.72;;;6.70;92.00;;;;;;5049067;28;20122;-60
2022/11/26 03:13:32;;;;;;;8.18;3.88;;;6.70;91.90;;;;;;5047256;28;20049;-59
2022/11/26 03:16:01;;;;;;;9.15;4.10;;;6.70;92.00;;;;;;5044741;28;20048;-60
2022/11/26 03:18:29;;;;;;;7.25;4.25;;;6.70;92.00;;;;;;5047948;28;20047;-60
2022/11/26 03:20:56;;;;;;;10.23;4.15;;;6.70;92.00;;;;;;5048489;28;20056;-67
2022/11/26 03:23:23;;;;;;;9.88;4.40;;;6.60;92.00;;;;;;5046621;28;20491;-68
2022/11/26 03:25:52;;;;;;;7.35;4.13;;;6.70;92.00;;;;;;5048856;28;20451;-61
2022/11/26 03:28:19;;;;;;;9.95;4.32;;;6.70;92.00;;;;;;5047004;28;20079;-61
2022/11/26 03:30:48;;;;;;;8.98;4.18;;;6.70;92.00;;;;;;5049596;28;20160;-60
2022/11/26 03:33:17;;;;;;;7.70;4.20;;;6.70;92.00;;;;;;5043653;28;20541;-61
2022/11/26 03:35:48;;;;;;;11.63;4.60;;;6.60;92.00;;;;;;5048497;28;20045;-61
2022/11/26 03:38:15;;;;;;;8.43;4.07;;;6.70;92.00;;;;;;5047737;28;20407;-61
2022/11/26 03:40:42;;;;;;;11.07;4.20;;;6.70;92.00;;;;;;5048745;28;20107;-61
2022/11/26 03:43:09;;;;;;;8.63;4.20;;;6.70;92.00;;;;;;5049688;28;20041;-61
2022/11/26 03:45:36;;;;;;;9.50;3.83;;;6.70;92.10;;;;;;5049383;28;20052;-67
2022/11/26 03:48:03;;;;;;;10.43;4.18;;;6.70;92.10;;;;;;5047166;28;20072;-66
2022/11/26 03:50:31;;;;;;;9.00;3.90;;;6.70;92.10;;;;;;5043407;28;20124;-67
2022/11/26 03:52:58;;;;;;;9.38;4.38;;;6.70;92.00;;;;;;5049446;28;20068;-66
2022/11/26 03:55:25;;;;;;;9.20;4.20;;;6.70;92.00;;;;;;5048199;28;20127;-61
2022/11/26 03:57:52;;;;;;;8.50;4.00;;;6.80;92.00;;;;;;5048899;28;20145;-61
2022/11/26 04:00:20;;;;;;;8.98;3.90;;;6.70;92.00;;;;;;5047629;28;20045;-60
2022/11/26 04:02:47;;;;;;;9.05;3.60;;;6.80;92.00;;;;;;5047728;28;20079;-60
2022/11/26 04:05:14;;;;;;;9.70;3.63;;;6.80;91.90;;;;;;5047402;28;20491;-59
2022/11/26 04:07:43;;;;;;;8.05;3.72;;;6.80;92.00;;;;;;5048820;28;20140;-59
2022/11/26 04:10:11;;;;;;;11.43;3.97;;;6.80;92.00;;;;;;5049162;28;20048;-58
2022/11/26 04:12:40;;;;;;;11.07;4.07;;;6.80;92.00;;;;;;5045382;28;20055;-59
2022/11/26 04:15:08;;;;;;;7.75;4.38;;;6.80;92.10;;;;;;5039482;28;20048;-59
2022/11/26 04:17:34;;;;;;;6.68;3.10;;;6.80;92.10;;;;;;5039254;28;20048;-59
2022/11/26 04:20:07;;;;;;;8.10;3.17;;;6.80;92.10;;;;;;5046790;28;20785;-59
2022/11/26 04:22:34;;;;;;;8.88;3.60;;;6.80;92.20;;;;;;5048468;28;20087;-59
2022/11/26 04:25:02;;;;;;;10.70;4.25;;;6.80;92.20;;;;;;5044287;28;20135;-58
2022/11/26 04:27:29;;;;;;;8.10;3.40;;;6.80;92.20;;;;;;5045053;28;20041;-58
2022/11/26 04:29:56;;;;;;;6.45;3.25;;;6.80;92.10;;;;;;5046995;28;20047;-59
2022/11/26 04:32:23;;;;;;;9.65;3.30;;;6.80;92.00;;;;;;5046862;28;20121;-65
2022/11/26 04:34:50;;;;;;;7.82;3.33;;;6.80;92.00;;;;;;5041296;28;20052;-66
2022/11/26 04:37:17;;;;;;;7.05;3.65;;;6.80;92.00;;;;;;5039672;28;20568;-67
2022/11/26 04:39:44;;;;;;;8.60;3.55;;;6.80;92.00;;;;;;5042754;28;20148;-67
2022/11/26 04:42:12;;;;;;;7.40;3.22;;;6.80;92.00;;;;;;5045730;28;20498;-65
2022/11/26 04:44:39;;;;;;;12.18;4.28;;;6.80;92.00;;;;;;5046451;28;20041;-66
2022/11/26 04:47:06;;;;;;;8.88;3.40;;;6.70;91.90;;;;;;5032447;28;20045;-66
2022/11/26 04:49:33;;;;;;;10.27;3.13;;;6.70;91.90;;;;;;5037166;28;20156;-67
2022/11/26 04:52:00;;;;;;;9.73;3.50;;;6.60;91.80;;;;;;5042341;28;20044;-66
2022/11/26 04:54:28;;;;;;;10.23;3.50;;;6.60;91.80;;;;;;5041959;28;20049;-65
2022/11/26 04:56:55;;;;;;;8.30;3.60;;;6.60;91.70;;;;;;5040036;28;20126;-67
2022/11/26 04:59:23;;;;;;;10.38;3.53;;;6.60;91.70;;;;;;5039638;28;20049;-67
2022/11/26 05:01:50;;;;;;;10.85;3.67;;;6.50;91.70;;;;;;5041638;28;20041;-67
2022/11/26 05:04:17;;;;;;;13.10;4.25;;;6.50;91.70;;;;;;5042022;28;20081;-66
2022/11/26 05:06:44;;;;;;;10.73;3.63;;;6.40;91.60;;;;;;5043821;28;20068;-67
2022/11/26 05:09:13;;;;;;;10.00;3.67;;;6.40;91.70;;;;;;5045213;28;20132;-65
2022/11/26 05:11:40;;;;;;;8.68;3.88;;;6.40;91.40;;;;;;5045563;28;20133;-67
2022/11/26 05:14:08;;;;;;;10.85;3.60;;;6.40;91.50;;;;;;5043984;28;20518;-66
2022/11/26 05:16:36;;;;;;;8.82;3.50;;;6.40;91.30;;;;;;5043854;28;20132;-65
2022/11/26 05:19:03;;;;;;;10.18;3.30;;;6.40;91.30;;;;;;5044402;28;20047;-66
2022/11/26 05:21:30;;;;;;;7.90;3.58;;;6.40;91.30;;;;;;5050549;28;20048;-67
2022/11/26 05:23:57;;;;;;;7.78;3.25;;;6.20;91.30;;;;;;5051151;28;20053;-66
2022/11/26 05:26:24;;;;;;;6.93;3.15;;;6.20;91.20;;;;;;5052626;28;20053;-65
2022/11/26 05:28:51;;;;;;;7.45;3.03;;;6.20;91.20;;;;;;5048328;28;20133;-66
2022/11/26 05:31:18;;;;;;;6.70;3.30;;;6.20;91.20;;;;;;5046249;28;20049;-66
2022/11/26 05:33:46;;;;;;;8.77;3.30;;;6.20;91.00;;;;;;5049480;28;20053;-65
2022/11/26 05:36:13;;;;;;;9.80;3.30;;;6.10;91.00;;;;;;5050929;28;20492;-66
2022/11/26 05:38:40;;;;;;;10.98;3.00;;;6.10;91.00;;;;;;5045526;28;20057;-66
2022/11/26 05:41:07;;;;;;;8.40;3.00;;;6.10;91.00;;;;;;5051220;28;20068;-67
2022/11/26 05:43:34;;;;;;;6.32;3.30;;;6.10;91.00;;;;;;5052049;28;20122;-66
2022/11/26 05:46:04;;;;;;;7.80;2.92;;;6.10;91.00;;;;;;5047881;28;20194;-66
2022/11/26 05:48:31;;;;;;;8.52;2.90;;;6.10;90.90;;;;;;5046562;28;20052;-67
2022/11/26 05:51:00;;;;;;;9.70;3.72;;;6.10;91.00;;;;;;5050721;28;20041;-66
2022/11/26 05:53:29;;;;;;;7.20;2.30;;;6.10;91.00;;;;;;5050133;28;20095;-67
2022/11/26 05:55:56;;;;;;;6.63;3.17;;;6.10;90.90;;;;;;5050509;28;20130;-66
2022/11/26 05:58:23;;;;;;;7.55;3.03;;;6.10;90.80;;;;;;5051374;28;20412;-65
2022/11/26 06:00:50;;;;;;;7.53;3.38;;;6.00;90.90;;;;;;5047784;28;20051;-66
2022/11/26 06:03:17;;;;;;;7.32;2.75;;;6.00;90.90;;;;;;5048387;28;20045;-66
2022/11/26 06:05:44;;;;;;;7.47;2.83;;;6.00;90.80;;;;;;5050799;28;20083;-67
2022/11/26 06:08:12;;;;;;;8.13;3.22;;;6.00;90.80;;;;;;5049703;28;20057;-67
2022/11/26 06:10:41;;;;;;;7.35;3.33;;;5.90;90.90;;;;;;5051832;28;20128;-67
2022/11/26 06:13:08;;;;;;;10.35;3.47;;;5.90;90.90;;;;;;5050955;28;20559;-66
2022/11/26 06:15:35;;;;;;;8.85;3.00;;;5.90;91.00;;;;;;5048654;28;20498;-67
2022/11/26 06:18:02;;;;;;;6.28;2.97;;;5.90;91.00;;;;;;5049237;28;20045;-66
2022/11/26 06:20:29;;;;;;;7.78;3.30;;;5.90;91.00;;;;;;5047783;28;20045;-67
2022/11/26 06:22:56;;;;;;;7.15;2.92;;;5.80;91.00;;;;;;5049768;28;20045;-66
2022/11/26 06:25:25;;;;;;;7.45;3.10;;;5.80;91.00;;;;;;5047740;28;20090;-66
2022/11/26 06:27:52;;;;;;;8.75;3.20;;;5.80;91.00;;;;;;5048952;28;20073;-67
2022/11/26 06:30:20;;;;;;;5.72;2.63;;;5.80;90.90;;;;;;5046754;28;20041;-66
2022/11/26 06:32:48;;;;;;;8.00;3.03;;;5.80;90.90;;;;;;5045900;28;20037;-65
2022/11/26 06:35:15;;;;;;;10.50;3.30;;;5.70;90.90;;;;;;5047486;28;20095;-66
2022/11/26 06:37:42;;;;;;;6.60;3.13;;;5.80;90.90;;;;;;5047479;28;20507;-66
2022/11/26 06:40:15;;;;;;;7.85;3.03;;;5.70;91.00;;;;;;5049330;28;20041;-65
2022/11/26 06:42:48;;;;;;;8.40;2.78;;;5.70;90.90;;;;;;5048472;28;20052;-67
2022/11/26 06:45:15;;;;;;;8.88;2.83;;;5.70;90.90;;;;;;5047323;28;20051;-66
2022/11/26 06:47:42;;;;;;;9.50;3.60;;;5.70;90.90;;;;;;5046441;28;20040;-67
2022/11/26 06:50:09;;;;;;;7.38;3.88;;;5.70;91.00;;;;;;5046865;28;20048;-66
2022/11/26 06:52:36;;;;;;;6.88;3.40;;;5.70;91.00;;;;;;5046797;28;20048;-66
2022/11/26 06:55:04;;;;;;;10.60;3.78;;;5.70;91.00;;;;;;5045315;28;20040;-67
2022/11/26 06:57:31;;;;;;;10.23;3.63;;;5.80;91.00;;;;;;5048893;28;20056;-67
2022/11/26 06:59:59;;;;;;;10.85;4.03;;;5.70;91.00;;;;;;5043379;28;20053;-67
2022/11/26 07:02:26;;;;;;;8.85;3.95;;;5.70;91.10;;;;;;5048090;28;20049;-66
2022/11/26 07:04:53;;;;;;;11.55;4.45;;;5.70;91.20;;;;;;5046373;28;20104;-67
2022/11/26 07:07:20;;;;;;;8.85;3.67;;;5.70;91.20;;;;;;5048428;28;20060;-66
2022/11/26 07:09:47;;;;;;;11.65;4.15;;;5.80;91.20;;;;;;5048241;28;20487;-65
2022/11/26 07:12:14;;;;;;;11.65;4.28;;;5.80;91.30;;;;;;5048800;28;20429;-66
2022/11/26 07:14:42;;;;;;;12.35;4.22;;;5.80;91.40;;;;;;5048780;28;20044;-67
2022/11/26 07:17:10;;;;;;;11.73;3.50;;;5.80;91.60;;;;;;5047384;28;20037;-66
2022/11/26 07:19:37;;;;;;;9.15;3.78;;;5.90;91.60;;;;;;5049851;28;20067;-66
2022/11/26 07:22:04;;;;;;;13.32;5.03;;;5.90;91.50;;;;;;5048577;28;20638;-66
2022/11/26 07:24:33;;;;;;;9.85;3.95;;;5.90;91.50;;;;;;5046662;28;20059;-66
2022/11/26 07:27:00;;;;;;;11.88;4.20;;;5.90;91.60;;;;;;5046860;28;20492;-66
2022/11/26 07:29:28;;;;;;;7.40;3.55;;;5.90;91.60;;;;;;5049068;28;20107;-67
2022/11/26 07:31:55;;;;;;;11.27;4.70;;;5.90;91.60;;;;;;5047512;28;20482;-65
2022/11/26 07:34:23;;;;;;;12.07;4.95;;;5.90;91.60;;;;;;5049034;28;20049;-66
2022/11/26 07:36:50;;;;;;;9.98;4.47;;;5.90;91.50;;;;;;5048725;28;20045;-67
2022/11/26 07:39:17;;;;;;;11.43;5.07;;;5.90;91.50;;;;;;5046142;28;20095;-66
2022/11/26 07:41:44;;;;;;;9.68;5.18;;;5.90;91.50;;;;;;5047605;28;20045;-66
2022/11/26 07:44:13;;;;;;;11.50;4.60;;;5.90;91.50;;;;;;5049449;28;20116;-66
2022/11/26 07:46:40;;;;;;;9.55;4.30;;;5.90;91.50;;;;;;5048810;28;20458;-66
2022/11/26 07:49:10;;;;;;;10.77;4.57;;;6.00;91.50;;;;;;5045729;28;20091;-64
2022/11/26 07:51:38;;;;;;;10.88;4.70;;;6.00;91.50;;;;;;5047877;28;20076;-66
2022/11/26 07:54:07;;;;;;;9.75;4.32;;;6.00;91.50;;;;;;5046277;28;20045;-66
2022/11/26 07:56:35;;;;;;;11.15;4.82;;;6.00;91.60;;;;;;5044861;28;20049;-66
2022/11/26 07:59:03;;;;;;;10.75;4.82;;;6.10;91.70;;;;;;5045419;28;20037;-64
2022/11/26 08:01:30;;;;;;;8.82;4.57;;;6.10;91.70;;;;;;5046292;28;20076;-66
2022/11/26 08:03:58;;;;;;;12.70;4.85;;;6.20;91.70;;;;;;5042787;28;20447;-65
2022/11/26 08:06:27;;;;;;;9.93;5.07;;;6.10;91.70;;;;;;5044142;28;20041;-66
2022/11/26 08:08:56;;;;;;;12.27;4.80;;;6.20;91.80;;;;;;5044327;28;20057;-66
2022/11/26 08:11:25;;;;;;;13.10;5.07;;;6.20;91.60;;;;;;5047462;28;20049;-66
2022/11/26 08:13:54;;;;;;;10.93;4.68;;;6.20;91.50;;;;;;5042801;28;20052;-65
2022/11/26 08:16:21;;;;;;;7.70;4.20;;;6.30;91.60;;;;;;5042541;28;20045;-67
2022/11/26 08:18:49;;;;;;;12.32;4.40;;;6.30;91.60;;;;;;5046604;28;20041;-65
2022/11/26 08:21:16;;;;;;;8.98;5.00;;;6.30;91.70;;;;;;5047250;28;20061;-65
2022/11/26 08:23:43;;;;;;;11.90;4.53;;;6.30;91.80;;;;;;5048110;28;20083;-66
2022/11/26 08:26:14;;;;;;;10.82;4.38;;;6.30;91.70;;;;;;5047963;28;20128;-66
2022/11/26 08:28:42;;;;;;;11.10;4.30;;;6.40;91.70;;;;;;5044962;28;20099;-65
2022/11/26 08:31:11;;;;;;;8.73;4.05;;;6.40;91.70;;;;;;5042703;28;20052;-65
2022/11/26 08:33:39;;;;;;;10.15;4.32;;;6.40;91.70;;;;;;5041473;28;20160;-65
2022/11/26 08:36:07;;;;;;;8.50;4.50;;;6.50;91.80;;;;;;5042583;28;20073;-65
2022/11/26 08:38:34;;;;;;;7.75;3.63;;;6.60;91.70;;;;;;5047582;28;20141;-66
2022/11/26 08:41:02;;;;;;;9.05;3.90;;;6.60;91.80;;;;;;5048977;28;20056;-65
2022/11/26 08:43:31;;;;;;;9.50;4.10;;;6.60;91.90;;;;;;5046483;28;20037;-65
2022/11/26 08:45:59;;;;;;;8.75;3.90;;;6.60;91.70;;;;;;5046154;28;20049;-64
2022/11/26 08:48:30;;;;;;;9.00;3.70;;;6.70;92.00;;;;;;5047246;28;20128;-66
2022/11/26 08:50:57;;;;;;;;;;;6.70;91.90;;;;;;5046738;28;20495;-66
2022/11/26 08:53:24;;;;;;;8.25;3.42;;;6.70;91.90;;;;;;5049244;28;19927;-66
2022/11/26 08:55:51;;;;;;;7.35;3.75;;;6.80;92.00;;;;;;5048963;28;20059;-66
2022/11/26 08:58:19;;;;;;;9.18;4.07;;;6.90;92.00;;;;;;5051182;28;20041;-66
2022/11/26 09:00:47;;;;;;;14.27;4.20;;;6.90;91.90;;;;;;5048922;28;20041;-66
2022/11/26 09:03:14;;;;;;;9.27;4.30;;;6.90;91.90;;;;;;5051434;28;20606;-65
2022/11/26 09:05:41;;;;;;;9.02;4.32;;;7.00;91.90;;;;;;5049873;28;20076;-66
2022/11/26 09:08:08;;;;;;;9.73;4.43;;;7.00;91.90;;;;;;5049250;28;20132;-66
2022/11/26 09:10:35;;;;;;;9.43;4.32;;;7.10;91.80;;;;;;5050941;28;20060;-66
2022/11/26 09:13:02;;;;;;;9.20;4.13;;;7.20;91.70;;;;;;5051460;28;20080;-66
2022/11/26 09:15:30;;;;;;;11.75;4.28;;;7.20;91.80;;;;;;5046452;28;20048;-66
2022/11/26 09:18:02;;;;;;;9.70;3.97;;;7.20;91.80;;;;;;5050397;28;20045;-66
2022/11/26 09:20:29;;;;;;;10.63;4.43;;;7.30;91.90;;;;;;5047005;28;20514;-66
2022/11/26 09:22:56;;;;;;;9.65;4.43;;;7.30;91.70;;;;;;5047200;28;20179;-65
2022/11/26 09:25:23;;;;;;;8.75;3.95;;;7.30;92.00;;;;;;5049311;28;20048;-67
2022/11/26 09:27:50;;;;;;;6.88;3.38;;;7.40;92.00;;;;;;5049988;28;20069;-67
2022/11/26 09:30:18;;;;;;;8.80;3.40;;;7.40;91.90;;;;;;5049647;28;20049;-67
2022/11/26 09:32:45;;;;;;;11.95;3.63;;;7.50;91.90;;;;;;5045581;28;20053;-67
2022/11/26 09:35:13;;;;;;;8.50;3.83;;;7.50;91.90;;;;;;5044545;28;20446;-67
2022/11/26 09:37:40;;;;;;;10.18;3.38;;;7.60;91.80;;;;;;5049547;28;20372;-67
2022/11/26 09:40:10;;;;;;;9.52;3.40;;;7.70;91.80;;;;;;5049532;28;20041;-66
2022/11/26 09:42:48;;;;;;;9.73;3.55;;;7.80;91.80;;;;;;5045623;28;20068;-68
2022/11/26 09:45:32;;;;;;;11.05;3.53;;;7.80;91.70;;;;;;5045085;28;20098;-67
2022/11/26 09:48:02;;;;;;;7.88;4.00;;;7.90;91.70;;;;;;5049700;28;20075;-67
2022/11/26 09:50:34;;;;;;;10.17;3.57;;;7.90;91.70;;;;;;5049523;28;20057;-67
2022/11/26 09:53:05;;;;;;;9.15;3.55;;;7.90;91.50;;;;;;5046397;28;20431;-66
2022/11/26 09:55:34;;;;;;;10.65;3.78;;;7.90;91.40;;;;;;5047255;28;20079;-66
2022/11/26 09:58:10;;;;;;;9.00;3.37;;;7.80;91.40;;;;;;5046883;28;20087;-67
2022/11/26 10:00:40;;;;;;;11.48;4.00;;;7.90;91.50;;;;;;5050016;28;20399;-67
2022/11/26 10:03:13;;;;;;;8.73;3.50;;;7.80;91.20;;;;;;5049349;28;20483;-66
2022/11/26 10:05:45;;;;;;;10.60;4.00;;;7.80;91.30;;;;;;5042664;28;20141;-67
2022/11/26 10:08:26;;;;;;;7.65;3.58;;;7.90;91.30;;;;;;5046197;28;20128;-63
2022/11/26 10:10:57;;;;;;;8.93;3.63;;;7.90;91.30;;;;;;5047529;28;20049;-65
2022/11/26 10:13:32;;;;;;;11.60;3.70;;;7.90;91.30;;;;;;5048156;28;20098;-67
2022/11/26 10:16:08;;;;;;;10.45;4.05;;;7.90;91.30;;;;;;5048145;28;20099;-66
2022/11/26 10:18:43;;;;;;;9.65;3.72;;;7.90;91.30;;;;;;5049225;28;20053;-67
2022/11/26 10:21:18;;;;;;;10.13;4.22;;;7.90;91.30;;;;;;5048449;28;20043;-68
2022/11/26 10:23:49;;;;;;;10.93;3.80;;;7.90;91.30;;;;;;5047423;28;20041;-68
2022/11/26 10:26:18;;;;;;;12.88;4.63;;;8.00;91.30;;;;;;5043739;28;20048;-66
2022/11/26 10:28:47;;;;;;;9.98;4.10;;;8.00;91.20;;;;;;5050942;28;20122;-67
2022/11/26 10:31:21;;;;;;;9.45;3.92;;;8.10;91.20;;;;;;5049607;28;20167;-68
2022/11/26 10:33:57;;;;;;;11.30;3.80;;;8.10;91.20;;;;;;5047306;28;20072;-67
2022/11/26 10:36:34;;;;;;;11.98;4.57;;;8.10;91.20;;;;;;5049291;28;20252;-67
2022/11/26 10:39:01;;;;;;;11.18;4.18;;;8.10;91.20;;;;;;5051089;28;20048;-67
2022/11/26 10:41:31;;;;;;;9.98;4.30;;;8.20;91.20;;;;;;5048795;28;21057;-67
2022/11/26 10:44:32;;;;;;;12.03;5.20;;;8.20;91.10;;;;;;5049842;28;20060;-67
2022/11/26 10:47:17;;;;;;;10.77;4.47;;;8.20;91.00;;;;;;5048450;28;20084;-65
2022/11/26 10:49:44;;;;;;;9.15;3.80;;;8.30;91.00;;;;;;5051072;28;20442;-66
2022/11/26 10:52:17;;;;;;;8.65;3.95;;;8.20;91.10;;;;;;5046394;28;20404;-67
2022/11/26 10:54:46;;;;;;;8.05;3.88;;;8.20;91.00;;;;;;5045764;28;20045;-67
2022/11/26 10:57:17;;;;;;;11.25;4.43;;;8.20;91.10;;;;;;5046806;28;20048;-66
2022/11/26 10:59:50;;;;;;;9.48;4.22;;;8.20;91.00;;;;;;5049441;28;20052;-66
2022/11/26 11:02:30;;;;;;;12.90;4.80;;;8.20;91.10;;;;;;5049433;28;20044;-67
2022/11/26 11:05:00;;;;;;;9.48;4.15;;;8.20;91.10;;;;;;5050161;28;20115;-65
2022/11/26 11:07:32;;;;;;;;;;;8.20;91.00;;;;;;5048696;28;20045;-67
2022/11/26 11:10:04;;;;;;;;;;;8.20;91.00;;;;;;5048938;28;19925;-66
2022/11/26 11:12:31;;;;;;;12.15;4.22;;;8.20;91.00;;;;;;5048524;28;19948;-67
2022/11/26 11:15:19;;;;;;;14.57;5.13;;;8.20;91.00;;;;;;5046563;28;20045;-65
2022/11/26 11:17:47;;;;;;;12.50;5.10;;;8.30;91.00;;;;;;5047496;28;20053;-67
2022/11/26 11:20:33;;;;;;;11.95;4.65;;;8.30;91.00;;;;;;5048980;28;20036;-64
2022/11/26 11:23:05;;;;;;;11.63;4.63;;;8.20;90.80;;;;;;5045806;28;20045;-61
2022/11/26 11:25:34;;;;;;;12.57;5.20;;;8.30;90.70;;;;;;5045600;28;20053;-61
2022/11/26 11:28:07;;;;;;;9.95;4.90;;;8.40;90.80;;;;;;5044356;28;20060;-61
2022/11/26 11:30:36;;;;;;;11.43;4.90;;;8.40;90.80;;;;;;5038687;28;20577;-61
2022/11/26 11:33:16;;;;;;;11.95;5.35;;;8.40;90.70;;;;;;5040868;28;20064;-60
2022/11/26 11:35:43;;;;;;;12.73;5.22;;;8.40;90.70;;;;;;5047673;28;20068;-60
2022/11/26 11:38:23;;;;;;;13.02;5.45;;;8.40;90.70;;;;;;5046568;28;20127;-59
2022/11/26 11:40:50;;;;;;;12.07;5.15;;;8.40;90.60;;;;;;5047324;28;20292;-58
2022/11/26 11:43:18;;;;;;;10.65;5.15;;;8.40;90.50;;;;;;5044899;28;20037;-58
2022/11/26 11:45:56;;;;;;;13.35;4.93;;;8.50;90.50;;;;;;5046760;28;20053;-60
2022/11/26 11:48:37;;;;;;;10.05;4.95;;;8.40;90.40;;;;;;5044903;28;20143;-60
2022/11/26 11:51:15;;;;;;;13.30;5.05;;;8.50;90.30;;;;;;5047673;28;20055;-60
2022/11/26 11:53:53;;;;;;;14.80;5.53;;;8.50;90.10;;;;;;5044963;28;20638;-60
2022/11/26 11:56:27;;;;;;;14.45;4.93;;;8.60;90.00;;;;;;5046855;28;20122;-60
2022/11/26 11:59:12;;;;;;;8.13;4.70;;;8.60;90.00;;;;;;5045494;28;20136;-59
2022/11/26 12:02:02;;;;;;;11.93;5.78;;;8.60;90.00;;;;;;5048526;28;20098;-60
2022/11/26 12:04:53;;;;;;;9.65;5.22;;;8.60;90.20;;;;;;5045617;28;20119;-60
2022/11/26 12:07:31;;;;;;;;;;;8.50;90.20;;;;;;5040177;28;20045;-58
2022/11/26 12:10:11;;;;;;;11.15;4.55;;;8.50;90.00;;;;;;5046027;28;19975;-60
2022/11/26 12:12:43;;;;;;;10.50;5.10;;;8.40;89.90;;;;;;5049401;28;20495;-59
2022/11/26 12:15:17;;;;;;;12.70;5.40;;;8.40;90.10;;;;;;5043245;28;20491;-60
2022/11/26 12:17:48;;;;;;;11.60;5.65;;;8.40;89.80;;;;;;5047913;28;20045;-60
2022/11/26 12:20:22;;;;;;;16.13;5.60;;;8.40;89.80;;;;;;5048604;28;20053;-64
2022/11/26 12:22:56;;;;;;;10.27;5.40;;;8.40;89.90;;;;;;5044555;28;20407;-63
2022/11/26 12:25:30;;;;;;;13.27;5.88;;;8.40;89.60;;;;;;5046781;28;20041;-64
2022/11/26 12:28:02;;;;;;;13.93;5.70;;;8.40;89.70;;;;;;5049961;28;20037;-63
2022/11/26 12:30:36;;;;;;;10.45;5.15;;;8.50;89.80;;;;;;5048582;28;20048;-64
2022/11/26 12:33:12;;;;;;;9.10;5.20;;;8.50;89.70;;;;;;5048685;28;20124;-63
2022/11/26 12:35:43;;;;;;;13.38;5.88;;;8.50;89.50;;;;;;5053958;28;20549;-64
2022/11/26 12:38:15;;;;;;;13.02;5.78;;;8.50;89.70;;;;;;5048891;28;20049;-64
2022/11/26 12:40:48;;;;;;;12.00;5.53;;;8.50;89.80;;;;;;5052191;28;20051;-64
2022/11/26 12:43:21;;;;;;;12.65;5.53;;;8.50;89.80;;;;;;5054029;28;20048;-63
2022/11/26 12:45:53;;;;;;;14.45;5.32;;;8.50;90.00;;;;;;5052337;28;20048;-65
2022/11/26 12:48:35;;;;;;;11.25;5.55;;;8.50;89.80;;;;;;5052505;28;20041;-64
2022/11/26 12:51:11;;;;;;;9.75;5.13;;;8.50;89.50;;;;;;5052338;28;20702;-64
2022/11/26 12:53:45;;;;;;;9.77;4.93;;;8.50;90.00;;;;;;5050681;28;20507;-63
2022/11/26 12:56:19;;;;;;;13.18;6.25;;;8.50;89.60;;;;;;5049841;28;20064;-63
2022/11/26 12:59:00;;;;;;;9.95;5.25;;;8.50;89.90;;;;;;5050504;28;20184;-64
2022/11/26 13:01:31;;;;;;;10.93;5.32;;;8.60;89.50;;;;;;5050382;28;20036;-64
2022/11/26 13:04:01;;;;;;;12.75;5.35;;;8.50;89.30;;;;;;5048094;28;20927;-63
2022/11/26 13:06:41;;;;;;;14.85;5.43;;;8.60;89.20;;;;;;5049630;28;20045;-64
2022/11/26 13:09:24;;;;;;;12.80;5.78;;;8.60;89.10;;;;;;5048355;28;20041;-65